KBKL/BKL METAR and TAF weather

Enter ICAO airport designator
Station Type Date Time Source
KBKL METAR 2020/04/05 04:53 UTC NOAA

KBKL 050453Z AUTO 26004KT 10SM OVC070 09/05 A3002 RMK AO2 SLP168 T00890050 401110039


Station Type Date Time Source
KBKL Decoded METAR 2020/04/05 04:53 UTC NOAA

CLEVELAND BURKE LAKEFRONT, OH, United States (KBKL) 41-32N 81-40W 184M
Apr 05, 2020 - 12:53 AM EDT / 2020.04.05 0453 UTC
Wind: from the W (260 degrees) at 5 MPH (4 KT):0
Visibility: 10 mile(s):0
Sky conditions: overcast
Temperature: 48.0 F (8.9 C)
Dew Point: 41.0 F (5.0 C)
Relative Humidity: 76%
Pressure (altimeter): 30.02 in. Hg (1016 hPa)
ob: KBKL 050453Z AUTO 26004KT 10SM OVC070 09/05 A3002 RMK AO2 SLP168 T00890050 401110039
cycle: 5

Station Type Date Time Source
KBKL TAF UTC NOAA

Error!

Example: see airport list